createdAt,value
2023-04-10T00:00:12.578Z,7.04
2023-04-10T00:03:09.006Z,6.94
2023-04-10T00:05:49.247Z,6.90
2023-04-10T00:08:25.374Z,6.88
2023-04-10T00:11:04.407Z,6.87
2023-04-10T00:13:43.453Z,6.80
2023-04-10T00:16:20.468Z,6.76
2023-04-10T00:18:57.629Z,6.78
2023-04-10T00:21:32.828Z,6.78
2023-04-10T00:24:10.218Z,6.70
2023-04-10T00:26:46.216Z,6.65
2023-04-10T00:29:21.768Z,6.67
2023-04-10T00:32:01.366Z,6.64
2023-04-10T00:34:37.588Z,6.61
2023-04-10T00:37:15.948Z,6.63
2023-04-10T00:39:52.398Z,6.62
2023-04-10T00:42:28.171Z,6.63
2023-04-10T00:45:04.989Z,6.64
2023-04-10T00:47:42.202Z,6.60
2023-04-10T00:50:21.310Z,6.52
2023-04-10T00:53:06.045Z,6.43
2023-04-10T00:55:43.598Z,6.41
2023-04-10T00:58:21.763Z,6.35
2023-04-10T01:00:57.474Z,6.27
2023-04-10T01:03:34.376Z,6.20
2023-04-10T01:06:20.350Z,6.23
2023-04-10T01:09:07.119Z,6.23
2023-04-10T01:11:56.179Z,6.19
2023-04-10T01:14:41.402Z,6.16
2023-04-10T01:17:25.515Z,6.08
2023-04-10T01:20:12.752Z,5.99
2023-04-10T01:23:03.573Z,5.87
2023-04-10T01:25:51.699Z,5.78
2023-04-10T01:29:07.864Z,5.70
2023-04-10T01:31:51.738Z,5.60
2023-04-10T01:34:36.321Z,5.56
2023-04-10T01:37:18.286Z,5.51
2023-04-10T01:40:22.344Z,5.48
2023-04-10T01:43:00.434Z,5.47
2023-04-10T01:45:47.205Z,5.47
2023-04-10T01:48:22.544Z,5.45
2023-04-10T01:50:59.235Z,5.46
2023-04-10T01:53:37.843Z,5.48
2023-04-10T01:56:18.176Z,5.50
2023-04-10T01:58:55.676Z,5.49
2023-04-10T02:01:32.079Z,5.44
2023-04-10T02:04:10.781Z,5.42
2023-04-10T02:07:00.946Z,5.34
2023-04-10T02:09:47.899Z,5.28
2023-04-10T02:12:32.765Z,5.30
2023-04-10T02:15:11.151Z,5.27
2023-04-10T02:17:56.337Z,5.23
2023-04-10T02:20:34.992Z,5.18
2023-04-10T02:23:12.372Z,5.17
2023-04-10T02:25:52.786Z,5.19
2023-04-10T02:28:30.358Z,5.19
2023-04-10T02:31:09.482Z,5.17
2023-04-10T02:33:45.046Z,5.14
2023-04-10T02:36:20.054Z,5.11
2023-04-10T02:38:57.885Z,5.12
2023-04-10T02:41:38.543Z,5.16
2023-04-10T02:44:17.767Z,5.17
2023-04-10T02:46:53.757Z,5.19
2023-04-10T02:49:30.355Z,5.16
2023-04-10T02:52:07.099Z,5.15
2023-04-10T02:54:44.062Z,5.17
2023-04-10T02:57:31.223Z,5.14
2023-04-10T03:00:10.051Z,5.14
2023-04-10T03:03:28.232Z,5.07
2023-04-10T03:06:06.193Z,5.10
2023-04-10T03:08:46.632Z,5.11
2023-04-10T03:11:24.537Z,5.12
2023-04-10T03:14:01.498Z,5.14
2023-04-10T03:16:37.234Z,5.16
2023-04-10T03:19:15.293Z,5.18
2023-04-10T03:21:52.715Z,5.20
2023-04-10T03:24:30.513Z,5.16
2023-04-10T03:27:08.896Z,5.18
2023-04-10T03:29:45.048Z,5.20
2023-04-10T03:32:22.033Z,5.24
2023-04-10T03:35:01.297Z,5.24
2023-04-10T03:37:37.944Z,5.23
2023-04-10T03:40:15.237Z,5.24
2023-04-10T03:43:01.448Z,5.18
2023-04-10T03:45:39.756Z,5.11
2023-04-10T03:48:16.818Z,5.15
2023-04-10T03:50:57.107Z,5.17
2023-04-10T03:53:38.564Z,5.17
2023-04-10T03:56:23.953Z,5.16
2023-04-10T03:59:00.332Z,5.19
2023-04-10T04:01:42.503Z,5.18
2023-04-10T04:04:20.752Z,5.20
2023-04-10T04:07:21.605Z,5.20
2023-04-10T04:10:18.796Z,5.13
2023-04-10T04:13:18.648Z,5.09
2023-04-10T04:16:14.890Z,5.03
2023-04-10T04:19:05.836Z,5.01
2023-04-10T04:21:48.743Z,5.06
2023-04-10T04:24:39.891Z,5.07
2023-04-10T04:27:33.169Z,5.11
2023-04-10T04:30:16.474Z,5.12
2023-04-10T04:32:56.361Z,5.12
2023-04-10T04:35:58.447Z,5.05
2023-04-10T04:38:58.428Z,5.01
2023-04-10T04:41:39.170Z,5.01
2023-04-10T04:44:25.276Z,5.05
2023-04-10T04:47:22.636Z,5.11
2023-04-10T04:50:21.863Z,5.13
2023-04-10T04:53:23.895Z,5.12
2023-04-10T04:56:18.722Z,5.16
2023-04-10T04:59:22.101Z,5.22
2023-04-10T05:02:28.563Z,5.30
2023-04-10T05:05:24.444Z,5.30
2023-04-10T05:08:13.497Z,5.32
2023-04-10T05:11:11.419Z,5.35
2023-04-10T05:14:13.232Z,5.38
2023-04-10T05:17:11.306Z,5.41
2023-04-10T05:19:54.164Z,5.49
2023-04-10T05:22:49.316Z,5.55
2023-04-10T05:25:50.159Z,5.57
2023-04-10T05:28:31.045Z,5.62
2023-04-10T05:31:38.712Z,5.58
2023-04-10T05:34:22.981Z,5.58
2023-04-10T05:37:25.575Z,5.58
2023-04-10T05:40:29.570Z,5.65
2023-04-10T05:43:26.147Z,5.76
2023-04-10T05:46:12.116Z,5.87
2023-04-10T05:49:05.098Z,5.96
2023-04-10T05:52:05.404Z,6.01
2023-04-10T05:55:13.712Z,6.10
2023-04-10T05:57:52.281Z,6.16
2023-04-10T06:00:54.189Z,6.13
2023-04-10T06:03:56.360Z,6.19
2023-04-10T06:06:39.587Z,6.31
2023-04-10T06:09:13.745Z,6.40
2023-04-10T06:11:49.492Z,6.46
2023-04-10T06:14:28.941Z,6.55
2023-04-10T06:17:13.389Z,6.66
2023-04-10T06:19:52.075Z,6.73
2023-04-10T06:22:28.480Z,6.82
2023-04-10T06:25:05.617Z,6.89
2023-04-10T06:27:44.068Z,6.93
2023-04-10T06:30:22.243Z,6.97
2023-04-10T06:32:59.477Z,7.01
2023-04-10T06:35:37.497Z,7.01
2023-04-10T06:38:16.917Z,7.01
2023-04-10T06:40:51.350Z,7.07
2023-04-10T06:43:31.949Z,7.15
2023-04-10T06:46:09.160Z,7.23
2023-04-10T06:48:49.824Z,7.29
2023-04-10T06:51:29.533Z,7.39
2023-04-10T06:54:03.621Z,7.48
2023-04-10T06:56:47.730Z,7.53
2023-04-10T06:59:24.182Z,7.61
2023-04-10T07:02:01.047Z,7.71
2023-04-10T07:04:38.656Z,7.82
2023-04-10T07:07:20.265Z,7.98
2023-04-10T07:09:55.413Z,8.12
2023-04-10T07:12:33.548Z,8.23
2023-04-10T07:15:13.768Z,8.32
2023-04-10T07:17:51.012Z,8.47
2023-04-10T07:20:29.597Z,8.59
2023-04-10T07:23:06.881Z,8.70
2023-04-10T07:25:40.709Z,8.76
2023-04-10T07:28:15.920Z,8.82
2023-04-10T07:30:52.016Z,8.89
2023-04-10T07:33:30.317Z,8.94
2023-04-10T07:36:07.823Z,8.99
2023-04-10T07:38:44.334Z,9.05
2023-04-10T07:41:19.859Z,9.11
2023-04-10T07:43:56.109Z,9.15
2023-04-10T07:46:32.361Z,9.21
2023-04-10T07:49:10.583Z,9.32
2023-04-10T07:51:46.988Z,9.39
2023-04-10T07:54:23.903Z,9.43
2023-04-10T07:57:04.162Z,9.45
2023-04-10T07:59:39.669Z,9.50
2023-04-10T08:02:16.178Z,9.61
2023-04-10T08:04:53.305Z,9.72
2023-04-10T08:07:30.304Z,9.78
2023-04-10T08:10:05.761Z,9.81
2023-04-10T08:12:42.170Z,9.89
2023-04-10T08:15:18.871Z,9.98
2023-04-10T08:17:56.611Z,10.07
2023-04-10T08:20:38.130Z,10.16
2023-04-10T08:23:20.334Z,10.17
2023-04-10T08:26:00.600Z,10.14
2023-04-10T08:28:38.286Z,10.19
2023-04-10T08:31:15.603Z,10.25
2023-04-10T08:33:54.661Z,10.33
2023-04-10T08:36:29.580Z,10.43
2023-04-10T08:39:06.342Z,10.53
2023-04-10T08:41:43.996Z,10.61
2023-04-10T08:44:21.716Z,10.69
2023-04-10T08:47:01.613Z,10.78
2023-04-10T08:49:45.133Z,10.86
2023-04-10T08:52:24.801Z,10.94
2023-04-10T08:55:02.779Z,11.00
2023-04-10T08:57:45.204Z,11.06
2023-04-10T09:00:26.458Z,11.12
2023-04-10T09:03:05.966Z,11.21
2023-04-10T09:05:42.039Z,11.29
2023-04-10T09:08:18.591Z,11.37
2023-04-10T09:10:57.429Z,11.45
2023-04-10T09:13:49.253Z,11.53
2023-04-10T09:16:35.261Z,11.59
2023-04-10T09:19:11.654Z,11.64
2023-04-10T09:21:55.818Z,11.78
2023-04-10T09:24:36.068Z,11.88
2023-04-10T09:27:11.690Z,11.95
2023-04-10T09:29:52.333Z,12.03
2023-04-10T09:32:41.990Z,12.08
2023-04-10T09:35:19.624Z,12.11
2023-04-10T09:37:55.436Z,12.20
2023-04-10T09:40:41.701Z,12.29
2023-04-10T09:43:25.558Z,12.37
2023-04-10T09:46:05.790Z,12.42
2023-04-10T09:48:41.992Z,12.52
2023-04-10T09:51:41.351Z,12.62
2023-04-10T09:54:18.109Z,12.68
2023-04-10T09:57:02.317Z,12.74
2023-04-10T09:59:47.576Z,12.80
2023-04-10T10:02:26.677Z,12.86
2023-04-10T10:05:05.601Z,12.93
2023-04-10T10:07:47.440Z,12.98
2023-04-10T10:10:27.957Z,13.02
2023-04-10T10:13:06.889Z,13.07
2023-04-10T10:15:49.392Z,13.09
2023-04-10T10:18:39.660Z,13.10
2023-04-10T10:21:22.291Z,13.13
2023-04-10T10:24:00.608Z,13.24
2023-04-10T10:26:37.476Z,13.36
2023-04-10T10:29:20.710Z,13.45
2023-04-10T10:31:59.455Z,13.48
2023-04-10T10:34:46.920Z,13.48
2023-04-10T10:37:25.136Z,13.53
2023-04-10T10:40:08.762Z,13.59
2023-04-10T10:42:53.645Z,13.67
2023-04-10T10:45:35.701Z,13.66
2023-04-10T10:48:14.247Z,13.68
2023-04-10T10:51:01.057Z,13.71
2023-04-10T10:53:46.688Z,13.75
2023-04-10T10:56:39.458Z,13.84
2023-04-10T10:59:22.923Z,13.92
2023-04-10T11:02:19.583Z,13.98
2023-04-10T11:04:58.025Z,14.02
2023-04-10T11:08:12.364Z,14.09
2023-04-10T11:11:05.786Z,14.17
2023-04-10T11:14:04.749Z,14.22
2023-04-10T11:16:52.177Z,14.26
2023-04-10T11:19:28.465Z,14.28
2023-04-10T11:22:12.023Z,14.30
2023-04-10T11:25:10.578Z,14.31
2023-04-10T11:27:51.837Z,14.37
2023-04-10T11:30:41.883Z,14.47
2023-04-10T11:33:23.214Z,14.57
2023-04-10T11:36:00.793Z,14.68
2023-04-10T11:38:36.482Z,14.78
2023-04-10T11:41:14.324Z,14.83
2023-04-10T11:43:54.675Z,14.87
2023-04-10T11:46:39.602Z,14.94
2023-04-10T11:49:22.628Z,14.98
2023-04-10T11:51:57.872Z,15.02
2023-04-10T11:54:38.714Z,15.09
2023-04-10T11:57:19.609Z,15.10
2023-04-10T11:59:57.385Z,15.16
2023-04-10T12:02:33.866Z,15.19
2023-04-10T12:05:20.932Z,15.19
2023-04-10T12:08:03.015Z,15.22
2023-04-10T12:10:56.084Z,15.27
2023-04-10T12:13:34.108Z,15.30
2023-04-10T12:16:13.208Z,15.34
2023-04-10T12:18:49.515Z,15.33
2023-04-10T12:21:28.513Z,15.38
2023-04-10T12:24:05.071Z,15.43
2023-04-10T12:26:40.150Z,15.47
2023-04-10T12:29:18.063Z,15.56
2023-04-10T12:31:54.135Z,15.66
2023-04-10T12:34:33.210Z,15.72
2023-04-10T12:37:12.682Z,15.76
2023-04-10T12:39:48.386Z,15.79
2023-04-10T12:42:26.052Z,15.78
2023-04-10T12:45:04.448Z,15.75
2023-04-10T12:47:49.299Z,15.73
2023-04-10T12:50:28.865Z,15.79
2023-04-10T12:53:14.173Z,15.81
2023-04-10T12:56:09.336Z,15.83
2023-04-10T12:58:45.477Z,15.89
2023-04-10T13:01:23.095Z,15.96
2023-04-10T13:03:58.555Z,16.03
2023-04-10T13:06:38.774Z,16.09
2023-04-10T13:09:19.252Z,16.17
2023-04-10T13:11:58.197Z,16.23
2023-04-10T13:14:40.429Z,16.27
2023-04-10T13:17:16.548Z,16.31
2023-04-10T13:19:52.554Z,16.37
2023-04-10T13:22:28.514Z,16.43
2023-04-10T13:25:08.463Z,16.49
2023-04-10T13:27:44.022Z,16.49
2023-04-10T13:30:24.572Z,16.50
2023-04-10T13:33:02.691Z,16.50
2023-04-10T13:35:37.884Z,16.52
2023-04-10T13:38:13.366Z,16.51
2023-04-10T13:40:50.600Z,16.56
2023-04-10T13:43:26.297Z,16.54
2023-04-10T13:46:06.486Z,16.58
2023-04-10T13:48:43.976Z,16.62
2023-04-10T13:51:21.786Z,16.70
2023-04-10T13:53:59.282Z,16.77
2023-04-10T13:56:36.595Z,16.79
2023-04-10T13:59:12.804Z,16.82
2023-04-10T14:01:48.722Z,16.74
2023-04-10T14:04:35.836Z,16.72
2023-04-10T14:07:12.498Z,16.77
2023-04-10T14:09:48.735Z,16.84
2023-04-10T14:12:24.544Z,16.92
2023-04-10T14:15:02.009Z,16.99
2023-04-10T14:17:45.981Z,17.05
2023-04-10T14:20:21.572Z,17.07
2023-04-10T14:22:59.224Z,17.02
2023-04-10T14:25:36.013Z,16.98
2023-04-10T14:28:17.961Z,17.02
2023-04-10T14:30:54.527Z,17.06
2023-04-10T14:33:29.726Z,17.03
2023-04-10T14:36:11.849Z,17.00
2023-04-10T14:38:52.916Z,17.05
2023-04-10T14:41:29.584Z,17.12
2023-04-10T14:44:08.845Z,17.14
2023-04-10T14:46:47.909Z,17.19
2023-04-10T14:49:32.214Z,17.19
2023-04-10T14:52:09.059Z,17.22
2023-04-10T14:54:53.219Z,17.25
2023-04-10T14:57:32.603Z,17.24
2023-04-10T15:00:17.363Z,17.27
2023-04-10T15:02:54.714Z,17.24
2023-04-10T15:05:33.797Z,17.13
2023-04-10T15:08:10.230Z,17.13
2023-04-10T15:10:48.222Z,17.13
2023-04-10T15:13:25.169Z,17.18
2023-04-10T15:16:01.844Z,17.22
2023-04-10T15:18:39.847Z,17.25
2023-04-10T15:21:24.695Z,17.29
2023-04-10T15:24:02.577Z,17.35
2023-04-10T15:26:39.796Z,17.34
2023-04-10T15:29:19.303Z,17.33
2023-04-10T15:31:55.603Z,17.32
2023-04-10T15:34:30.627Z,17.31
2023-04-10T15:37:14.991Z,17.32
2023-04-10T15:39:51.153Z,17.27
2023-04-10T15:42:28.334Z,17.31
2023-04-10T15:45:21.948Z,17.33
2023-04-10T15:48:06.058Z,17.34
2023-04-10T15:50:47.464Z,17.34
2023-04-10T15:53:24.577Z,17.29
2023-04-10T15:56:03.225Z,17.26
2023-04-10T15:58:41.661Z,17.23
2023-04-10T16:01:22.327Z,17.16
2023-04-10T16:03:57.937Z,17.07
2023-04-10T16:06:36.076Z,17.07
2023-04-10T16:09:25.427Z,17.05
2023-04-10T16:12:06.211Z,17.00
2023-04-10T16:14:44.518Z,16.92
2023-04-10T16:17:23.004Z,16.93
2023-04-10T16:20:00.622Z,16.91
2023-04-10T16:22:39.639Z,16.94
2023-04-10T16:25:17.607Z,16.98
2023-04-10T16:27:57.548Z,16.99
2023-04-10T16:30:36.302Z,17.02
2023-04-10T16:33:10.711Z,17.03
2023-04-10T16:35:47.862Z,17.02
2023-04-10T16:38:27.986Z,17.02
2023-04-10T16:41:10.461Z,16.98
2023-04-10T16:43:44.828Z,16.97
2023-04-10T16:46:22.238Z,16.94
2023-04-10T16:49:00.145Z,16.88
2023-04-10T16:51:37.057Z,16.85
2023-04-10T16:54:13.554Z,16.83
2023-04-10T16:56:57.018Z,16.77
2023-04-10T16:59:42.545Z,16.75
2023-04-10T17:02:25.308Z,16.68
2023-04-10T17:05:02.235Z,16.59
2023-04-10T17:07:38.723Z,16.52
2023-04-10T17:10:18.624Z,16.41
2023-04-10T17:13:00.928Z,16.33
2023-04-10T17:15:35.553Z,16.27
2023-04-10T17:18:20.852Z,16.17
2023-04-10T17:20:58.335Z,16.06
2023-04-10T17:23:36.064Z,15.98
2023-04-10T17:26:17.734Z,15.91
2023-04-10T17:28:54.511Z,15.84
2023-04-10T17:31:33.813Z,15.76
2023-04-10T17:34:13.689Z,15.68
2023-04-10T17:36:50.130Z,15.61
2023-04-10T17:39:25.263Z,15.54
2023-04-10T17:42:02.142Z,15.46
2023-04-10T17:44:45.167Z,15.38
2023-04-10T17:47:20.223Z,15.30
2023-04-10T17:49:57.128Z,15.22
2023-04-10T17:52:37.521Z,15.15
2023-04-10T17:55:21.321Z,15.06
2023-04-10T17:58:06.100Z,14.95
2023-04-10T18:00:43.590Z,14.85
2023-04-10T18:03:22.189Z,14.74
2023-04-10T18:06:03.896Z,14.67
2023-04-10T18:08:39.789Z,14.59
2023-04-10T18:11:16.421Z,14.52
2023-04-10T18:13:53.297Z,14.45
2023-04-10T18:16:31.258Z,14.37
2023-04-10T18:19:08.104Z,14.29
2023-04-10T18:21:45.167Z,14.22
2023-04-10T18:24:20.269Z,14.15
2023-04-10T18:26:55.816Z,14.06
2023-04-10T18:29:33.399Z,14.00
2023-04-10T18:32:10.750Z,13.93
2023-04-10T18:34:46.429Z,13.87
2023-04-10T18:37:23.244Z,13.80
2023-04-10T18:40:21.006Z,13.70
2023-04-10T18:42:58.957Z,13.63
2023-04-10T18:45:35.330Z,13.57
2023-04-10T18:48:11.193Z,13.51
2023-04-10T18:50:48.337Z,13.45
2023-04-10T18:53:25.617Z,13.39
2023-04-10T18:56:03.824Z,13.34
2023-04-10T18:58:43.098Z,13.28
2023-04-10T19:01:19.247Z,13.21
2023-04-10T19:04:01.688Z,13.13
2023-04-10T19:06:40.383Z,13.06
2023-04-10T19:09:15.800Z,12.99
2023-04-10T19:11:56.947Z,12.93
2023-04-10T19:14:32.825Z,12.87
2023-04-10T19:17:09.920Z,12.81
2023-04-10T19:19:45.250Z,12.71
2023-04-10T19:22:39.815Z,12.61
2023-04-10T19:25:14.454Z,12.54
2023-04-10T19:27:53.033Z,12.48
2023-04-10T19:30:30.929Z,12.44
2023-04-10T19:33:07.777Z,12.41
2023-04-10T19:35:54.803Z,12.38
2023-04-10T19:38:32.642Z,12.34
2023-04-10T19:41:19.889Z,12.29
2023-04-10T19:43:59.363Z,12.24
2023-04-10T19:46:35.593Z,12.20
2023-04-10T19:49:12.275Z,12.14
2023-04-10T19:51:48.253Z,12.11
2023-04-10T19:54:24.847Z,12.08
2023-04-10T19:57:00.614Z,12.04
2023-04-10T19:59:38.738Z,12.00
2023-04-10T20:02:16.998Z,11.97
2023-04-10T20:04:55.104Z,11.93
2023-04-10T20:07:36.766Z,11.89
2023-04-10T20:10:12.480Z,11.79
2023-04-10T20:12:50.757Z,11.69
2023-04-10T20:15:47.387Z,11.65
2023-04-10T20:18:26.378Z,11.58
2023-04-10T20:21:04.721Z,11.53
2023-04-10T20:23:39.454Z,11.50
2023-04-10T20:26:17.444Z,11.47
2023-04-10T20:28:56.304Z,11.44
2023-04-10T20:31:34.090Z,11.40
2023-04-10T20:34:11.622Z,11.36
2023-04-10T20:36:48.572Z,11.32
2023-04-10T20:39:23.998Z,11.28
2023-04-10T20:42:04.162Z,11.25
2023-04-10T20:44:41.623Z,11.22
2023-04-10T20:47:19.974Z,11.19
2023-04-10T20:49:54.121Z,11.15
2023-04-10T20:52:29.458Z,11.12
2023-04-10T20:55:04.073Z,11.08
2023-04-10T20:57:42.595Z,11.05
2023-04-10T21:00:21.327Z,11.02
2023-04-10T21:02:58.288Z,10.97
2023-04-10T21:05:34.985Z,10.94
2023-04-10T21:08:15.320Z,10.92
2023-04-10T21:10:52.062Z,10.89
2023-04-10T21:13:27.554Z,10.85
2023-04-10T21:16:05.478Z,10.82
2023-04-10T21:18:42.522Z,10.79
2023-04-10T21:21:20.900Z,10.73
2023-04-10T21:23:58.469Z,10.70
2023-04-10T21:26:46.251Z,10.67
2023-04-10T21:29:26.171Z,10.64
2023-04-10T21:32:02.906Z,10.62
2023-04-10T21:34:39.048Z,10.59
2023-04-10T21:37:15.437Z,10.57
2023-04-10T21:39:50.595Z,10.55
2023-04-10T21:42:26.312Z,10.53
2023-04-10T21:45:01.380Z,10.52
2023-04-10T21:47:39.484Z,10.49
2023-04-10T21:50:16.973Z,10.47
2023-04-10T21:52:53.327Z,10.44
2023-04-10T21:55:45.561Z,10.40
2023-04-10T21:58:22.372Z,10.37
2023-04-10T22:00:58.969Z,10.35
2023-04-10T22:03:36.672Z,10.33
2023-04-10T22:06:20.471Z,10.31
2023-04-10T22:08:59.010Z,10.29
2023-04-10T22:11:34.977Z,10.27
2023-04-10T22:14:17.176Z,10.25
2023-04-10T22:16:58.495Z,10.21
2023-04-10T22:19:33.846Z,10.19
2023-04-10T22:22:10.405Z,10.16
2023-04-10T22:24:53.432Z,10.13
2023-04-10T22:27:31.767Z,10.11
2023-04-10T22:30:11.889Z,10.08
2023-04-10T22:32:50.533Z,10.06
2023-04-10T22:35:29.562Z,10.03
2023-04-10T22:38:07.706Z,10.00
2023-04-10T22:40:47.693Z,9.96
2023-04-10T22:43:25.409Z,9.93
2023-04-10T22:46:01.349Z,9.90
2023-04-10T22:48:39.555Z,9.88
2023-04-10T22:51:16.267Z,9.85
2023-04-10T22:53:53.384Z,9.81
2023-04-10T22:56:29.519Z,9.79
2023-04-10T22:59:07.019Z,9.75
2023-04-10T23:01:42.311Z,9.72
2023-04-10T23:04:23.657Z,9.68
2023-04-10T23:07:01.507Z,9.65
2023-04-10T23:09:47.326Z,9.62
2023-04-10T23:12:23.335Z,9.59
2023-04-10T23:14:57.739Z,9.58
2023-04-10T23:17:35.996Z,9.57
2023-04-10T23:20:17.407Z,9.53
2023-04-10T23:22:54.176Z,9.47
2023-04-10T23:25:38.452Z,9.41
2023-04-10T23:28:17.434Z,9.38
2023-04-10T23:30:55.431Z,9.36
2023-04-10T23:33:32.328Z,9.35
2023-04-10T23:36:10.372Z,9.35
2023-04-10T23:38:48.394Z,9.33
2023-04-10T23:41:28.135Z,9.31
2023-04-10T23:44:06.231Z,9.28
2023-04-10T23:46:42.409Z,9.26
2023-04-10T23:49:18.254Z,9.25
2023-04-10T23:51:58.508Z,9.24
2023-04-10T23:54:33.834Z,9.23
2023-04-10T23:57:11.547Z,9.22
2023-04-10T23:59:51.807Z,9.20
